Time;durP1;ratioP1;P1;durP2;ratioP2;P2;SDS_P1;SDS_P2;PMS_P1;PMS_P2;Temp;Humidity;BMP_temperature;BMP_pressure;BME280_temperature;BME280_humidity;BME280_pressure;Samples;Min_cycle;Max_cycle;Signal;HPM_P1;HPM_P2
2023/07/28 00:00:06;;;;;;;3.40;3.20;;;17.40;99.90;;;;;;5016076;28;20669;-72
2023/07/28 00:02:32;;;;;;;4.73;3.30;;;17.50;99.90;;;;;;5015509;28;20172;-72
2023/07/28 00:04:57;;;;;;;3.57;3.33;;;17.50;99.90;;;;;;5009059;28;20183;-72
2023/07/28 00:07:23;;;;;;;3.40;3.20;;;17.50;99.90;;;;;;5017027;28;20239;-70
2023/07/28 00:09:48;;;;;;;3.60;3.40;;;17.50;99.90;;;;;;5014866;28;20642;-70
2023/07/28 00:12:14;;;;;;;4.23;3.93;;;17.50;99.90;;;;;;5014840;28;20243;-70
2023/07/28 00:14:40;;;;;;;4.87;4.03;;;17.50;99.90;;;;;;5014446;28;20270;-70
2023/07/28 00:17:05;;;;;;;4.30;3.90;;;17.50;99.90;;;;;;5014473;28;20804;-71
2023/07/28 00:19:31;;;;;;;4.10;3.80;;;17.40;99.90;;;;;;5015679;28;20263;-72
2023/07/28 00:21:57;;;;;;;3.97;3.67;;;17.50;99.90;;;;;;5015030;28;20574;-71
2023/07/28 00:24:22;;;;;;;4.10;3.80;;;17.40;99.90;;;;;;5015629;28;20646;-71
2023/07/28 00:26:48;;;;;;;5.67;3.63;;;17.50;99.90;;;;;;5014774;28;20199;-71
2023/07/28 00:29:13;;;;;;;4.40;3.60;;;17.50;99.90;;;;;;5015961;28;20187;-70
2023/07/28 00:31:39;;;;;;;3.60;3.40;;;17.50;99.90;;;;;;5012473;28;20574;-71
2023/07/28 00:34:05;;;;;;;4.10;3.80;;;17.50;99.90;;;;;;5011742;28;20660;-70
2023/07/28 00:36:31;;;;;;;3.63;3.43;;;17.50;99.90;;;;;;5014293;28;20176;-69
2023/07/28 00:38:57;;;;;;;3.97;3.63;;;17.40;99.90;;;;;;5013416;28;20649;-69
2023/07/28 00:41:23;;;;;;;4.77;3.90;;;17.50;99.90;;;;;;5014024;28;20208;-70
2023/07/28 00:43:48;;;;;;;4.53;4.00;;;17.50;99.90;;;;;;5013123;28;20180;-70
2023/07/28 00:46:15;;;;;;;4.23;3.87;;;17.50;99.90;;;;;;5014090;28;20208;-70
2023/07/28 00:48:41;;;;;;;4.30;3.90;;;17.50;99.90;;;;;;5010614;28;20551;-71
2023/07/28 00:51:08;;;;;;;3.70;3.40;;;17.50;99.90;;;;;;5013768;28;20202;-71
2023/07/28 00:53:34;;;;;;;4.60;3.57;;;17.60;99.90;;;;;;5014422;28;20674;-72
2023/07/28 00:56:00;;;;;;;3.70;3.40;;;17.60;99.90;;;;;;5012300;28;20187;-72
2023/07/28 00:58:27;;;;;;;3.43;3.20;;;17.60;99.90;;;;;;5007542;28;20188;-71
2023/07/28 01:00:52;;;;;;;3.30;3.10;;;17.60;99.90;;;;;;5013873;28;20202;-71
2023/07/28 01:03:19;;;;;;;3.43;3.10;;;17.60;99.90;;;;;;5012501;28;20180;-71
2023/07/28 01:06:14;;;;;;;3.33;3.10;;;17.60;99.90;;;;;;5012627;28;20354;-71
2023/07/28 01:09:03;;;;;;;3.90;3.30;;;17.60;99.90;;;;;;5011475;28;20188;-71
2023/07/28 01:11:30;;;;;;;3.80;3.50;;;17.60;99.90;;;;;;5011640;28;20196;-72
2023/07/28 01:13:55;;;;;;;3.33;3.13;;;17.60;99.90;;;;;;5015364;28;20168;-71
2023/07/28 01:16:21;;;;;;;3.60;3.40;;;17.70;99.90;;;;;;5015889;28;20203;-71
2023/07/28 01:18:47;;;;;;;3.57;3.37;;;17.70;99.90;;;;;;5015512;28;20637;-71
2023/07/28 01:21:28;;;;;;;3.53;3.30;;;17.70;99.90;;;;;;5011298;28;20206;-70
2023/07/28 01:24:08;;;;;;;3.50;3.23;;;17.70;99.90;;;;;;5013174;28;20215;-70
2023/07/28 01:26:38;;;;;;;3.63;3.33;;;17.70;99.90;;;;;;5013590;28;20207;-71
2023/07/28 01:29:05;;;;;;;3.67;3.23;;;17.70;99.90;;;;;;5013878;28;20185;-71
2023/07/28 01:31:31;;;;;;;3.30;3.00;;;17.70;99.90;;;;;;5006142;28;20695;-71
2023/07/28 01:33:57;;;;;;;3.80;3.50;;;17.70;99.90;;;;;;5004665;28;20192;-71
2023/07/28 01:36:22;;;;;;;3.27;3.07;;;17.70;99.90;;;;;;5011955;28;20180;-71
2023/07/28 01:38:48;;;;;;;3.10;2.80;;;17.60;99.90;;;;;;5012263;28;20649;-71
2023/07/28 01:41:14;;;;;;;3.40;3.20;;;17.60;99.90;;;;;;5012985;28;20561;-71
2023/07/28 01:43:39;;;;;;;3.37;3.13;;;17.60;99.90;;;;;;5012239;28;20196;-70
2023/07/28 01:46:05;;;;;;;3.50;3.30;;;17.60;99.90;;;;;;5012766;28;20227;-71
2023/07/28 01:48:30;;;;;;;5.37;3.57;;;17.60;99.90;;;;;;5012647;28;20172;-70
2023/07/28 01:50:56;;;;;;;3.80;3.60;;;17.60;99.90;;;;;;5011622;28;20555;-70
2023/07/28 01:53:22;;;;;;;3.60;3.40;;;17.50;99.90;;;;;;5012726;28;20179;-70
2023/07/28 01:55:47;;;;;;;3.70;3.50;;;17.50;99.90;;;;;;5011218;28;20203;-70
2023/07/28 01:58:13;;;;;;;3.30;3.10;;;17.60;99.90;;;;;;5011015;28;20184;-70
2023/07/28 02:00:38;;;;;;;4.00;3.50;;;17.60;99.90;;;;;;4996629;28;20283;-70
2023/07/28 02:03:04;;;;;;;3.67;3.37;;;17.50;99.90;;;;;;5011768;28;20215;-71
2023/07/28 02:05:31;;;;;;;4.20;3.60;;;17.50;99.90;;;;;;5012283;28;20333;-70
2023/07/28 02:07:57;;;;;;;3.63;3.43;;;17.50;99.90;;;;;;5011457;28;20168;-71
2023/07/28 02:10:29;;;;;;;3.87;3.33;;;17.50;99.90;;;;;;5012301;28;20203;-72
2023/07/28 02:12:55;;;;;;;3.27;2.97;;;17.60;99.90;;;;;;5012611;28;20168;-71
2023/07/28 02:15:20;;;;;;;3.63;3.33;;;17.60;99.90;;;;;;5011395;28;20179;-71
2023/07/28 02:17:46;;;;;;;3.83;3.30;;;17.60;99.90;;;;;;5001208;28;20196;-71
2023/07/28 02:20:12;;;;;;;4.97;3.83;;;17.60;99.90;;;;;;5010938;28;20243;-70
2023/07/28 02:22:39;;;;;;;7.27;4.10;;;17.50;99.90;;;;;;5012689;28;20168;-70
2023/07/28 02:25:05;;;;;;;3.60;3.30;;;17.50;99.90;;;;;;5012304;28;20184;-70
2023/07/28 02:27:31;;;;;;;3.83;3.53;;;17.50;99.90;;;;;;5011309;28;20203;-71
2023/07/28 02:29:57;;;;;;;4.10;3.67;;;17.50;99.90;;;;;;5115542;23;20243;-70
2023/07/28 02:32:23;;;;;;;4.03;3.73;;;17.60;99.90;;;;;;5028134;28;20179;-71
2023/07/28 02:34:48;;;;;;;8.30;4.30;;;17.60;99.90;;;;;;5028942;28;20234;-71
2023/07/28 02:37:15;;;;;;;3.97;3.67;;;17.60;99.90;;;;;;5013226;28;20187;-72
2023/07/28 02:39:42;;;;;;;3.80;3.50;;;17.60;99.90;;;;;;5028344;28;20203;-71
2023/07/28 02:42:07;;;;;;;6.13;4.20;;;17.60;99.90;;;;;;5012212;28;20239;-71
2023/07/28 02:44:33;;;;;;;5.00;3.70;;;17.60;99.90;;;;;;5013648;28;20263;-71
2023/07/28 02:46:59;;;;;;;6.27;4.00;;;17.60;99.90;;;;;;5012701;28;20250;-71
2023/07/28 02:49:24;;;;;;;4.10;3.80;;;17.60;99.90;;;;;;5012555;28;20282;-71
2023/07/28 02:51:50;;;;;;;5.93;3.67;;;17.60;99.90;;;;;;5026794;28;20179;-72
2023/07/28 02:54:15;;;;;;;4.80;3.90;;;17.60;99.90;;;;;;5012019;28;20171;-72
2023/07/28 02:56:41;;;;;;;5.73;3.90;;;17.70;99.90;;;;;;5025758;28;20792;-72
2023/07/28 02:59:07;;;;;;;5.13;3.97;;;17.70;99.90;;;;;;5011770;28;20208;-71
2023/07/28 03:01:35;;;;;;;8.80;4.10;;;17.70;99.90;;;;;;5011276;28;20267;-71
2023/07/28 03:04:02;;;;;;;3.97;3.67;;;17.60;99.90;;;;;;5011187;28;20184;-72
2023/07/28 03:06:28;;;;;;;6.77;4.17;;;17.60;99.90;;;;;;5012061;28;20199;-72
2023/07/28 03:08:54;;;;;;;8.40;3.83;;;17.60;99.90;;;;;;5012118;28;20196;-71
2023/07/28 03:11:20;;;;;;;4.30;4.00;;;17.60;99.90;;;;;;5010126;28;20176;-72
2023/07/28 03:13:45;;;;;;;4.07;3.77;;;17.70;99.90;;;;;;5026535;28;20527;-71
2023/07/28 03:16:11;;;;;;;4.20;3.80;;;17.70;99.90;;;;;;5010693;28;20246;-71
2023/07/28 03:18:36;;;;;;;3.90;3.60;;;17.70;99.90;;;;;;5011892;28;20203;-72
2023/07/28 03:21:02;;;;;;;4.40;3.90;;;17.70;99.90;;;;;;5025749;28;20223;-71
2023/07/28 03:23:28;;;;;;;6.30;3.60;;;17.70;99.90;;;;;;5026679;28;20360;-71
2023/07/28 03:25:53;;;;;;;7.43;4.17;;;17.70;99.90;;;;;;5012072;28;20618;-72
2023/07/28 03:28:19;;;;;;;5.30;4.40;;;17.70;99.90;;;;;;5010992;28;20186;-72
2023/07/28 03:30:45;;;;;;;4.23;3.90;;;17.70;99.90;;;;;;5012624;28;20200;-72
2023/07/28 03:33:10;;;;;;;5.30;3.83;;;17.70;99.90;;;;;;5027605;28;20171;-72
2023/07/28 03:35:36;;;;;;;4.07;3.73;;;17.70;99.90;;;;;;5029379;28;20713;-73
2023/07/28 03:38:02;;;;;;;4.87;4.47;;;17.70;99.90;;;;;;5010711;28;20270;-72
2023/07/28 03:40:28;;;;;;;4.30;4.00;;;17.70;99.90;;;;;;5010829;28;20611;-72
2023/07/28 03:42:54;;;;;;;5.13;4.63;;;17.70;99.90;;;;;;5010163;28;20176;-72
2023/07/28 03:45:20;;;;;;;9.30;4.20;;;17.70;99.90;;;;;;5026564;28;20635;-72
2023/07/28 03:47:45;;;;;;;4.30;3.90;;;17.70;99.90;;;;;;5028402;28;20208;-72
2023/07/28 03:50:11;;;;;;;4.37;3.97;;;17.60;99.90;;;;;;5026116;28;20580;-72
2023/07/28 03:52:37;;;;;;;7.77;4.90;;;17.70;99.90;;;;;;5009965;28;20278;-72
2023/07/28 03:55:03;;;;;;;5.60;3.97;;;17.70;99.90;;;;;;5012605;28;20172;-73
2023/07/28 03:57:29;;;;;;;4.43;4.00;;;17.70;99.90;;;;;;5016586;28;20176;-72
2023/07/28 03:59:54;;;;;;;4.37;4.07;;;17.70;99.90;;;;;;5010182;28;20243;-72
2023/07/28 04:02:20;;;;;;;4.50;4.10;;;17.70;99.90;;;;;;5011113;28;20184;-72
2023/07/28 04:04:45;;;;;;;4.30;4.00;;;17.70;99.90;;;;;;5012060;28;20203;-71
2023/07/28 04:07:11;;;;;;;6.63;4.00;;;17.70;99.90;;;;;;5016585;28;20262;-73
2023/07/28 04:09:36;;;;;;;4.77;4.37;;;17.80;99.90;;;;;;5013311;28;20250;-73
2023/07/28 04:12:02;;;;;;;4.13;3.83;;;17.80;99.90;;;;;;5029476;28;20223;-72
2023/07/28 04:14:28;;;;;;;4.50;4.20;;;17.80;99.90;;;;;;5017033;28;20172;-71
2023/07/28 04:16:53;;;;;;;4.83;4.30;;;17.80;99.90;;;;;;5031672;28;20195;-73
2023/07/28 04:19:19;;;;;;;4.73;4.37;;;17.70;99.90;;;;;;5031688;28;20682;-73
2023/07/28 04:21:45;;;;;;;4.40;4.10;;;17.80;99.90;;;;;;5018346;28;20211;-73
2023/07/28 04:24:11;;;;;;;4.30;4.00;;;17.80;99.90;;;;;;5034036;28;20184;-73
2023/07/28 04:26:37;;;;;;;4.30;4.00;;;17.80;99.90;;;;;;5010622;28;20204;-73
2023/07/28 04:29:03;;;;;;;4.10;3.80;;;17.90;99.90;;;;;;5035386;28;20206;-73
2023/07/28 04:31:29;;;;;;;4.53;4.20;;;17.80;99.90;;;;;;5018882;28;20173;-72
2023/07/28 04:33:54;;;;;;;4.33;4.03;;;17.80;99.90;;;;;;5029978;28;20660;-72
2023/07/28 04:36:20;;;;;;;4.63;4.30;;;17.90;99.90;;;;;;5015844;28;20176;-73
2023/07/28 04:38:45;;;;;;;4.80;4.30;;;17.90;99.90;;;;;;5029894;28;20207;-73
2023/07/28 04:41:11;;;;;;;4.30;4.00;;;17.90;99.90;;;;;;5013593;28;20184;-72
2023/07/28 04:43:36;;;;;;;4.20;3.90;;;17.90;99.90;;;;;;5018069;28;20247;-73
2023/07/28 04:46:02;;;;;;;4.17;3.87;;;17.90;99.90;;;;;;5030002;28;20200;-72
2023/07/28 04:48:28;;;;;;;3.93;3.47;;;17.90;99.90;;;;;;5028818;28;20184;-73
2023/07/28 04:50:54;;;;;;;4.73;4.00;;;17.90;99.90;;;;;;5014515;28;20184;-73
2023/07/28 04:53:19;;;;;;;7.50;4.27;;;17.90;99.90;;;;;;5013062;28;20183;-74
2023/07/28 04:55:45;;;;;;;4.20;3.90;;;18.00;99.90;;;;;;5014557;28;20634;-73
2023/07/28 04:58:11;;;;;;;4.60;3.60;;;18.00;99.90;;;;;;5013618;28;20188;-72
2023/07/28 05:00:36;;;;;;;4.50;4.17;;;18.00;99.90;;;;;;5012896;28;20278;-73
2023/07/28 05:03:02;;;;;;;3.83;3.63;;;18.00;99.90;;;;;;5010957;28;20607;-74
2023/07/28 05:05:29;;;;;;;4.30;3.90;;;18.00;99.90;;;;;;5029304;28;20278;-73
2023/07/28 05:07:55;;;;;;;4.93;4.10;;;18.00;99.90;;;;;;5016190;28;20175;-73
2023/07/28 05:10:21;;;;;;;3.73;3.47;;;18.10;99.90;;;;;;5030509;28;20196;-73
2023/07/28 05:12:46;;;;;;;4.77;3.80;;;18.10;99.90;;;;;;5012522;28;20181;-72
2023/07/28 05:15:15;;;;;;;4.03;3.60;;;18.00;99.90;;;;;;5015671;28;20180;-73
2023/07/28 05:17:40;;;;;;;3.87;3.47;;;18.00;99.90;;;;;;5015225;28;20184;-73
2023/07/28 05:20:06;;;;;;;4.60;4.20;;;18.00;99.90;;;;;;5013519;28;20254;-73
2023/07/28 05:22:32;;;;;;;3.70;3.50;;;18.10;99.90;;;;;;5027020;28;20200;-73
2023/07/28 05:24:58;;;;;;;3.47;3.27;;;18.10;99.90;;;;;;5029316;28;20230;-73
2023/07/28 05:27:24;;;;;;;4.00;3.60;;;18.10;99.90;;;;;;5012367;28;20185;-72
2023/07/28 05:29:49;;;;;;;4.00;3.70;;;18.10;99.90;;;;;;5028847;28;20685;-72
2023/07/28 05:32:15;;;;;;;3.67;3.43;;;18.10;99.90;;;;;;5028413;28;20191;-73
2023/07/28 05:34:44;;;;;;;3.47;3.27;;;18.10;99.90;;;;;;5029092;28;20176;-72
2023/07/28 05:37:10;;;;;;;4.40;4.10;;;18.20;99.90;;;;;;5008472;28;20184;-73
2023/07/28 05:39:36;;;;;;;4.07;3.77;;;18.20;99.90;;;;;;5013214;28;20200;-73
2023/07/28 05:42:02;;;;;;;4.07;3.70;;;18.20;99.90;;;;;;5012922;28;20575;-73
2023/07/28 05:44:28;;;;;;;4.70;3.70;;;18.20;99.90;;;;;;5028543;28;20169;-73
2023/07/28 05:46:54;;;;;;;3.80;3.60;;;18.20;99.90;;;;;;5011761;28;20315;-73
2023/07/28 05:49:19;;;;;;;3.90;3.60;;;18.20;99.90;;;;;;5011471;28;20232;-72
2023/07/28 05:51:45;;;;;;;4.80;4.07;;;18.20;99.90;;;;;;5027852;28;20235;-73
2023/07/28 05:54:14;;;;;;;4.30;4.00;;;18.20;99.90;;;;;;5013127;28;20525;-73
2023/07/28 05:56:40;;;;;;;4.50;3.50;;;18.20;99.90;;;;;;5012699;28;20208;-74
2023/07/28 05:59:06;;;;;;;3.83;3.60;;;18.20;99.90;;;;;;5012983;28;20239;-72
2023/07/28 06:01:33;;;;;;;3.87;3.67;;;18.20;99.90;;;;;;5027964;28;20187;-73
2023/07/28 06:03:59;;;;;;;6.40;4.17;;;18.20;99.90;;;;;;5012651;28;20183;-72
2023/07/28 06:06:25;;;;;;;4.00;3.70;;;18.20;99.90;;;;;;5027343;28;20215;-72
2023/07/28 06:08:52;;;;;;;4.20;3.90;;;18.20;99.90;;;;;;5012747;28;20192;-72
2023/07/28 06:11:17;;;;;;;5.57;4.23;;;18.20;99.90;;;;;;5027044;28;20267;-72
2023/07/28 06:13:44;;;;;;;3.90;3.60;;;18.20;99.90;;;;;;5026935;28;20266;-72
2023/07/28 06:16:09;;;;;;;4.70;4.30;;;18.20;99.90;;;;;;5011359;28;20176;-74
2023/07/28 06:18:35;;;;;;;4.47;4.13;;;18.30;99.90;;;;;;5013233;28;20238;-72
2023/07/28 06:21:00;;;;;;;4.53;4.20;;;18.30;99.90;;;;;;5011626;28;20176;-72
2023/07/28 06:23:27;;;;;;;4.47;4.03;;;18.30;99.90;;;;;;5010677;28;20981;-72
2023/07/28 06:25:54;;;;;;;5.60;4.37;;;18.30;99.90;;;;;;5010389;28;20591;-72
2023/07/28 06:28:20;;;;;;;5.37;4.77;;;18.30;99.90;;;;;;5027944;28;20744;-72
2023/07/28 06:30:45;;;;;;;5.27;4.77;;;18.40;99.90;;;;;;5011273;28;20278;-73
2023/07/28 06:33:11;;;;;;;5.47;4.77;;;18.40;99.90;;;;;;5012054;28;20212;-72
2023/07/28 06:35:37;;;;;;;5.07;4.67;;;18.40;99.90;;;;;;5012606;28;20310;-73
2023/07/28 06:38:03;;;;;;;8.53;5.60;;;18.50;99.90;;;;;;5012091;28;20647;-73
2023/07/28 06:40:29;;;;;;;5.67;5.07;;;18.40;99.90;;;;;;5011224;28;20204;-72
2023/07/28 06:42:54;;;;;;;7.03;6.13;;;18.40;99.90;;;;;;5011928;28;20186;-71
2023/07/28 06:45:21;;;;;;;7.67;5.90;;;18.40;99.90;;;;;;5011259;28;20642;-72
2023/07/28 06:47:46;;;;;;;6.80;6.10;;;18.40;99.90;;;;;;5010132;28;20179;-72
2023/07/28 06:50:13;;;;;;;7.40;6.70;;;18.40;99.90;;;;;;5009984;28;20203;-72
2023/07/28 06:52:39;;;;;;;8.47;7.40;;;18.50;99.90;;;;;;5009463;28;20191;-71
2023/07/28 06:55:05;;;;;;;8.73;7.83;;;18.50;99.90;;;;;;5009855;28;20192;-72
2023/07/28 06:57:31;;;;;;;7.93;7.23;;;18.50;99.90;;;;;;5009604;28;20181;-71
2023/07/28 06:59:57;;;;;;;9.00;8.10;;;18.50;99.90;;;;;;5009874;28;20204;-72
2023/07/28 07:02:23;;;;;;;10.40;9.17;;;18.60;99.90;;;;;;5010592;28;20662;-72
2023/07/28 07:04:48;;;;;;;9.33;8.30;;;18.60;99.90;;;;;;5014261;28;20263;-73
2023/07/28 07:07:14;;;;;;;8.97;8.00;;;18.60;99.90;;;;;;5011657;28;20291;-71
2023/07/28 07:09:40;;;;;;;8.13;7.43;;;18.60;99.90;;;;;;5011199;28;20203;-73
2023/07/28 07:12:08;;;;;;;9.83;7.57;;;18.60;99.90;;;;;;5023371;28;20188;-73
2023/07/28 07:14:33;;;;;;;9.63;7.30;;;18.60;99.90;;;;;;5025013;28;20239;-72
2023/07/28 07:16:59;;;;;;;9.47;6.70;;;18.70;99.90;;;;;;5026861;28;20188;-72
2023/07/28 07:19:25;;;;;;;8.20;6.80;;;18.80;99.90;;;;;;5001595;28;20572;-73
2023/07/28 07:21:50;;;;;;;9.70;7.23;;;18.90;99.90;;;;;;5026100;28;20195;-71
2023/07/28 07:24:16;;;;;;;7.73;7.03;;;19.00;99.90;;;;;;5011094;28;20188;-72
2023/07/28 07:26:42;;;;;;;7.63;6.93;;;19.00;99.90;;;;;;5010473;28;20690;-72
2023/07/28 07:29:09;;;;;;;7.83;6.93;;;19.00;99.90;;;;;;5009918;28;20215;-73
2023/07/28 07:31:34;;;;;;;8.17;6.93;;;19.10;99.90;;;;;;5026709;28;20603;-73
2023/07/28 07:34:00;;;;;;;7.37;6.67;;;19.10;99.90;;;;;;5010331;28;20259;-73
2023/07/28 07:36:26;;;;;;;7.97;6.67;;;19.10;99.90;;;;;;5011510;28;20638;-73
2023/07/28 07:38:51;;;;;;;9.67;7.10;;;19.10;99.90;;;;;;5010514;28;20269;-73
2023/07/28 07:41:19;;;;;;;7.37;6.53;;;19.30;99.90;;;;;;4996770;28;20192;-72
2023/07/28 07:43:49;;;;;;;7.47;6.77;;;19.30;99.90;;;;;;5010212;28;20180;-72
2023/07/28 07:46:16;;;;;;;8.67;6.70;;;19.30;99.90;;;;;;5010186;28;20218;-73
2023/07/28 07:48:42;;;;;;;7.70;6.97;;;19.30;99.90;;;;;;5014251;28;20206;-72
2023/07/28 07:51:08;;;;;;;7.13;6.37;;;19.30;99.90;;;;;;5013112;28;20184;-73
2023/07/28 07:53:36;;;;;;;8.07;6.70;;;19.30;99.90;;;;;;5030204;28;20642;-72
2023/07/28 07:56:02;;;;;;;7.30;6.07;;;19.30;99.90;;;;;;5011979;28;20220;-73
2023/07/28 07:58:28;;;;;;;6.93;5.83;;;19.30;99.90;;;;;;5014545;28;20191;-73
2023/07/28 08:00:55;;;;;;;6.83;6.17;;;19.30;99.90;;;;;;5014731;28;20188;-72
2023/07/28 08:03:21;;;;;;;7.30;5.70;;;19.30;99.90;;;;;;5014286;28;20234;-73
2023/07/28 08:05:47;;;;;;;7.23;5.83;;;19.40;99.90;;;;;;5013944;28;20211;-73
2023/07/28 08:08:15;;;;;;;7.73;5.43;;;19.50;99.90;;;;;;5013531;28;20176;-73
2023/07/28 08:10:40;;;;;;;5.83;5.33;;;19.50;99.90;;;;;;5015163;28;20195;-72
2023/07/28 08:13:06;;;;;;;5.43;4.97;;;19.70;99.90;;;;;;5014608;28;20172;-72
2023/07/28 08:15:32;;;;;;;5.40;5.00;;;19.80;99.90;;;;;;5015095;28;20180;-73
2023/07/28 08:17:57;;;;;;;5.73;5.27;;;20.00;99.90;;;;;;5014872;28;20172;-73
2023/07/28 08:20:23;;;;;;;4.70;4.30;;;20.20;99.90;;;;;;5014840;28;20685;-73
2023/07/28 08:22:48;;;;;;;5.17;4.83;;;20.30;99.90;;;;;;5014373;28;20180;-73
2023/07/28 08:25:14;;;;;;;5.80;4.57;;;20.30;99.90;;;;;;5014189;28;20219;-72
2023/07/28 08:27:40;;;;;;;4.60;4.30;;;20.40;99.90;;;;;;5015163;28;20172;-73
2023/07/28 08:30:06;;;;;;;4.33;3.77;;;20.40;99.90;;;;;;5014895;28;20290;-73
2023/07/28 08:32:32;;;;;;;4.70;4.40;;;20.50;99.90;;;;;;5014665;28;20183;-72
2023/07/28 08:34:57;;;;;;;4.80;4.40;;;20.50;99.90;;;;;;5030094;28;20583;-73
2023/07/28 08:37:23;;;;;;;5.27;3.90;;;20.60;99.90;;;;;;5014929;28;20212;-73
2023/07/28 08:39:48;;;;;;;4.27;3.87;;;20.80;99.90;;;;;;5015563;28;20203;-72
2023/07/28 08:42:15;;;;;;;4.27;3.97;;;21.00;99.90;;;;;;5012253;28;20184;-69
2023/07/28 08:44:41;;;;;;;4.00;3.70;;;21.20;99.90;;;;;;5013057;28;20184;-71
2023/07/28 08:47:07;;;;;;;3.80;3.50;;;21.50;99.90;;;;;;5013976;28;20257;-73
2023/07/28 08:49:35;;;;;;;3.60;3.37;;;21.80;99.90;;;;;;5014110;28;20200;-73
2023/07/28 08:52:01;;;;;;;3.55;3.28;;;22.10;99.90;;;;;;5012406;28;20176;-71
2023/07/28 08:54:27;;;;;;;3.00;2.80;;;22.40;99.90;;;;;;5014156;28;20176;-71
2023/07/28 08:56:53;;;;;;;2.83;2.72;;;22.50;99.90;;;;;;5012182;28;20188;-71
2023/07/28 08:59:26;;;;;;;2.97;2.70;;;22.70;99.90;;;;;;5013111;28;20200;-71
2023/07/28 09:01:53;;;;;;;2.78;2.58;;;22.90;99.90;;;;;;5012559;28;20187;-72
2023/07/28 09:04:20;;;;;;;2.60;2.40;;;23.10;99.90;;;;;;5012366;28;20192;-71
2023/07/28 09:06:47;;;;;;;2.67;2.58;;;23.40;99.90;;;;;;5012419;28;20218;-70
2023/07/28 09:09:14;;;;;;;2.38;2.28;;;23.60;99.90;;;;;;5012482;28;20192;-71
2023/07/28 09:11:51;;;;;;;2.60;2.42;;;23.60;99.90;;;;;;5013735;28;20173;-70
2023/07/28 09:14:17;;;;;;;2.85;2.65;;;23.60;99.90;;;;;;5013187;28;20179;-70
2023/07/28 09:16:43;;;;;;;2.80;2.67;;;23.50;99.90;;;;;;5013456;28;20216;-71
2023/07/28 09:19:10;;;;;;;2.42;2.33;;;23.60;99.90;;;;;;5028734;28;20231;-70
2023/07/28 09:21:37;;;;;;;2.33;2.22;;;23.50;99.90;;;;;;5013721;28;20180;-70
2023/07/28 09:24:07;;;;;;;3.10;2.90;;;23.50;99.90;;;;;;5013263;28;20180;-70
2023/07/28 09:26:45;;;;;;;2.83;2.63;;;23.30;99.90;;;;;;5013174;28;20236;-70
2023/07/28 09:29:16;;;;;;;3.58;3.38;;;23.20;99.90;;;;;;5013093;28;20258;-70
2023/07/28 09:31:48;;;;;;;3.85;2.70;;;23.20;99.90;;;;;;5013605;28;20651;-70
2023/07/28 09:34:27;;;;;;;3.17;2.97;;;23.10;99.90;;;;;;5012402;28;20176;-70
2023/07/28 09:37:00;;;;;;;3.13;2.92;;;23.20;99.90;;;;;;5013512;28;20229;-70
2023/07/28 09:39:26;;;;;;;2.60;2.50;;;23.20;99.90;;;;;;5013050;28;20561;-70
2023/07/28 09:41:53;;;;;;;2.45;2.35;;;23.30;99.90;;;;;;5013004;28;20183;-70
2023/07/28 09:44:18;;;;;;;2.80;2.70;;;23.40;99.90;;;;;;5012680;28;20580;-72
2023/07/28 09:46:52;;;;;;;2.50;2.40;;;23.60;99.90;;;;;;5012726;28;20208;-70
2023/07/28 09:49:39;;;;;;;2.55;2.45;;;23.90;99.90;;;;;;5028311;28;20283;-71
2023/07/28 09:52:08;;;;;;;2.42;2.33;;;24.20;99.90;;;;;;5027720;28;20183;-70
2023/07/28 09:54:38;;;;;;;2.70;2.50;;;24.30;99.90;;;;;;5013216;28;20168;-70
2023/07/28 09:57:07;;;;;;;2.83;2.63;;;24.40;99.90;;;;;;5028133;28;20643;-71
2023/07/28 09:59:38;;;;;;;2.28;2.17;;;24.30;99.90;;;;;;5011574;28;20250;-70
2023/07/28 10:02:05;;;;;;;2.42;2.22;;;24.20;99.90;;;;;;5027748;28;20544;-71
2023/07/28 10:04:32;;;;;;;2.30;2.20;;;24.20;99.90;;;;;;5013004;28;20168;-70
2023/07/28 10:06:57;;;;;;;2.25;2.15;;;24.20;99.90;;;;;;5011561;28;20200;-70
2023/07/28 10:09:28;;;;;;;6.47;1.92;;;24.00;99.90;;;;;;5012130;28;20245;-71
2023/07/28 10:11:55;;;;;;;2.08;1.98;;;23.90;99.90;;;;;;5027418;28;20177;-70
2023/07/28 10:14:32;;;;;;;2.10;2.00;;;23.80;99.90;;;;;;5009665;28;20180;-70
2023/07/28 10:16:58;;;;;;;2.20;2.10;;;23.60;99.90;;;;;;5012787;28;20637;-70
2023/07/28 10:19:27;;;;;;;4.85;2.30;;;23.40;99.90;;;;;;5012282;28;20661;-70
2023/07/28 10:22:07;;;;;;;2.92;2.20;;;23.40;99.90;;;;;;5012754;28;20450;-70
2023/07/28 10:24:52;;;;;;;1.95;1.85;;;23.50;99.90;;;;;;5010971;28;20175;-70
2023/07/28 10:27:43;;;;;;;1.90;1.80;;;23.50;99.90;;;;;;5012400;28;20211;-70
2023/07/28 10:30:14;;;;;;;2.75;1.70;;;23.40;99.90;;;;;;5010965;28;20602;-71
2023/07/28 10:32:42;;;;;;;2.17;1.98;;;23.30;99.90;;;;;;5012336;28;20199;-70
2023/07/28 10:35:17;;;;;;;2.45;2.30;;;23.40;99.90;;;;;;5010664;28;20207;-70
2023/07/28 10:37:46;;;;;;;2.30;2.10;;;23.50;99.90;;;;;;5011125;28;20249;-71
2023/07/28 10:40:34;;;;;;;2.10;2.00;;;23.60;99.90;;;;;;5011742;28;20246;-69
2023/07/28 10:43:01;;;;;;;2.00;1.83;;;23.90;99.90;;;;;;5012261;28;20183;-70
2023/07/28 10:45:29;;;;;;;2.10;2.00;;;24.30;99.90;;;;;;5010856;28;20631;-70
2023/07/28 10:47:59;;;;;;;3.10;2.00;;;24.90;99.90;;;;;;5012218;28;20565;-71
2023/07/28 10:50:29;;;;;;;2.83;2.10;;;25.30;99.90;;;;;;5010485;28;20196;-70
2023/07/28 10:52:55;;;;;;;1.90;1.80;;;25.70;99.90;;;;;;5012310;28;20525;-70
2023/07/28 10:55:23;;;;;;;2.25;2.15;;;26.00;99.90;;;;;;5027113;28;20207;-69
2023/07/28 10:57:51;;;;;;;2.28;1.90;;;26.10;99.90;;;;;;5027318;28;20255;-70
2023/07/28 11:00:18;;;;;;;2.60;1.85;;;26.10;99.90;;;;;;5012204;28;20188;-70
2023/07/28 11:02:46;;;;;;;1.90;1.80;;;25.90;99.90;;;;;;5027012;28;20168;-70
2023/07/28 11:05:32;;;;;;;3.85;2.20;;;25.70;99.90;;;;;;5010984;28;20168;-70
2023/07/28 11:08:00;;;;;;;3.22;3.03;;;25.40;99.90;;;;;;5025766;28;20182;-70
2023/07/28 11:10:28;;;;;;;2.90;2.80;;;25.20;99.90;;;;;;5010911;28;20188;-70
2023/07/28 11:12:58;;;;;;;2.55;2.17;;;25.60;99.90;;;;;;5025806;28;20184;-70
2023/07/28 11:15:25;;;;;;;3.85;3.05;;;26.20;99.90;;;;;;5026631;28;20191;-71
2023/07/28 11:17:51;;;;;;;2.72;2.63;;;26.80;99.90;;;;;;5010249;28;20200;-70
2023/07/28 11:20:20;;;;;;;2.47;2.28;;;27.10;99.90;;;;;;5009499;28;20211;-71
2023/07/28 11:22:59;;;;;;;2.67;2.40;;;27.10;99.90;;;;;;5010365;28;20172;-70
2023/07/28 11:25:27;;;;;;;2.60;2.40;;;27.10;99.90;;;;;;5011539;28;20229;-70
2023/07/28 11:27:53;;;;;;;2.10;2.00;;;26.80;99.90;;;;;;5027230;28;20637;-70
2023/07/28 11:30:20;;;;;;;2.92;2.60;;;26.70;99.90;;;;;;5011381;28;20247;-70
2023/07/28 11:32:47;;;;;;;2.85;2.70;;;26.10;99.90;;;;;;5012018;28;20701;-71
2023/07/28 11:35:15;;;;;;;2.72;2.60;;;25.50;99.90;;;;;;5026788;28;20544;-70
2023/07/28 11:37:43;;;;;;;4.53;2.40;;;25.10;99.90;;;;;;5011896;28;20180;-70
2023/07/28 11:40:13;;;;;;;2.55;2.45;;;24.90;99.90;;;;;;5010630;28;20192;-70
2023/07/28 11:42:40;;;;;;;3.53;1.90;;;24.90;99.90;;;;;;5009947;28;20187;-70
2023/07/28 11:45:07;;;;;;;1.92;1.83;;;25.20;99.90;;;;;;5011192;28;20184;-70
2023/07/28 11:47:33;;;;;;;2.58;2.45;;;25.60;99.90;;;;;;5010117;28;20208;-70
2023/07/28 11:50:00;;;;;;;2.03;1.92;;;25.70;99.90;;;;;;5011553;28;20196;-70
2023/07/28 11:52:36;;;;;;;1.98;1.88;;;25.80;99.90;;;;;;5009550;28;20208;-70
2023/07/28 11:55:06;;;;;;;2.72;2.60;;;25.80;99.90;;;;;;5011489;28;20179;-70
2023/07/28 11:57:33;;;;;;;2.72;2.63;;;25.90;99.90;;;;;;5026520;28;20176;-70
2023/07/28 12:00:00;;;;;;;2.10;2.00;;;25.90;99.90;;;;;;5026846;28;20559;-70
2023/07/28 12:02:29;;;;;;;3.08;2.35;;;26.10;99.90;;;;;;5010600;28;20250;-71
2023/07/28 12:04:56;;;;;;;1.80;1.70;;;26.20;99.90;;;;;;5011671;28;20599;-71
2023/07/28 12:07:30;;;;;;;2.28;2.15;;;26.20;99.90;;;;;;5010764;28;20214;-71
2023/07/28 12:09:59;;;;;;;2.28;2.17;;;26.00;99.90;;;;;;5026464;28;20752;-71
2023/07/28 12:12:28;;;;;;;3.42;1.92;;;26.00;99.90;;;;;;5009703;28;20203;-70
2023/07/28 12:14:55;;;;;;;2.53;2.42;;;26.10;99.90;;;;;;5026682;28;20177;-71
2023/07/28 12:17:23;;;;;;;2.47;2.30;;;26.00;99.90;;;;;;5011391;28;20255;-70
2023/07/28 12:20:10;;;;;;;2.00;1.90;;;25.80;99.90;;;;;;5026520;28;20199;-71
2023/07/28 12:22:40;;;;;;;2.40;1.90;;;25.60;99.90;;;;;;5011325;28;20247;-71
2023/07/28 12:25:06;;;;;;;1.90;1.80;;;25.30;99.90;;;;;;5011310;28;20173;-71
2023/07/28 12:27:32;;;;;;;2.00;1.90;;;25.10;99.90;;;;;;5009576;28;20199;-70
2023/07/28 12:29:58;;;;;;;1.95;1.85;;;24.90;99.90;;;;;;5009634;28;20705;-70
2023/07/28 12:32:24;;;;;;;2.40;2.20;;;24.80;99.90;;;;;;5012048;28;20570;-71
2023/07/28 12:34:50;;;;;;;2.25;2.10;;;24.80;99.90;;;;;;5028747;28;20187;-71
2023/07/28 12:37:17;;;;;;;2.10;2.00;;;24.80;99.90;;;;;;5012906;28;20606;-71
2023/07/28 12:39:43;;;;;;;2.80;2.20;;;24.80;99.90;;;;;;5014553;28;20199;-71
2023/07/28 12:42:10;;;;;;;3.03;2.22;;;24.80;99.90;;;;;;5029420;28;20295;-71
2023/07/28 12:44:40;;;;;;;3.55;2.13;;;24.80;99.90;;;;;;5030037;28;20638;-71
2023/07/28 12:47:06;;;;;;;2.25;2.05;;;24.80;99.90;;;;;;5014262;28;20567;-70